This is the latest recevied weather packets stored in our database for station/object N9MXT-13. If no packets are shown the sender has not sent any weather packets the latest 10 day(s).
| Time | Temp. | Humidity | Pressure | Rain* | Wind** | Luminosity | Snow |
|---|---|---|---|---|---|---|---|
| 1778113500 | 8.89° C | 46% | 1014.6 hPa | 0 mm | - | - | - |
| 1778113201 | 9.44° C | 48% | 1014.5 hPa | 0 mm | - | - | - |
| 1778111701 | 10° C | 46% | 1014.3 hPa | 0 mm | - | - | - |
| 1778111401 | 10° C | 46% | 1014.4 hPa | 0 mm | - | - | - |
| 1778109000 | 10.56° C | 48% | 1014 hPa | 0 mm | - | - | - |
| 1778105700 | 11.67° C | 44% | 1013.5 hPa | 0 mm | - | - | - |
| 1778103900 | 11.67° C | 44% | 1013.3 hPa | 0 mm | - | - | - |
| 1778103300 | 11.67° C | 44% | 1013.3 hPa | 0 mm | - | - | - |
| 1778103000 | 11.67° C | 44% | 1013.3 hPa | 0 mm | - | - | - |
| 1778102700 | 11.67° C | 44% | 1013.3 hPa | 0 mm | - | - | - |
| 1778100001 | 12.22° C | 44% | 1013.3 hPa | 0 mm | - | - | - |
| 1778099400 | 12.22° C | 44% | 1013.2 hPa | 0 mm | - | - | - |
| 1778098500 | 12.22° C | 42% | 1013.2 hPa | 0 mm | - | - | - |
| 1778098200 | 12.22° C | 41% | 1013.3 hPa | 0 mm | - | - | - |
| 1778096098 | 12.78° C | 38% | 1013.3 hPa | 0 mm | - | - | - |
| 1778088300 | 12.22° C | 43% | 1013.7 hPa | 0 mm | - | - | - |
| 1778087700 | 12.22° C | 42% | 1013.8 hPa | 0 mm | - | - | - |
| 1778082600 | 11.67° C | 45% | 1013.8 hPa | 0 mm | - | - | - |
| 1778080499 | 10.56° C | 47% | 1013.9 hPa | 0 mm | - | - | - |
| 1778078699 | 10° C | 48% | 1014.1 hPa | 0 mm | - | - | - |
| 1778076299 | 9.44° C | 56% | 1014.1 hPa | 0 mm | - | - | - |
| 1778075100 | 8.89° C | 60% | 1014 hPa | 0 mm | - | - | - |
| 1778073599 | 8.89° C | 58% | 1013.5 hPa | 0 mm | - | - | - |
| 1778072699 | 8.33° C | 58% | 1013.4 hPa | 0 mm | - | - | - |
| 1778066399 | 3.33° C | 83% | 1012.5 hPa | 0 mm | - | - | - |
* Rain latest hour (hover to see other rain measurements)
** Current wind speed in m/s (hover to see current wind gust speed)